Time;durP1;ratioP1;P1;durP2;ratioP2;P2;SDS_P1;SDS_P2;PMS_P1;PMS_P2;Temp;Humidity;BMP_temperature;BMP_pressure;BME280_temperature;BME280_humidity;BME280_pressure;Samples;Min_cycle;Max_cycle;Signal;HPM_P1;HPM_P2
2022/12/13 00:01:18;;;;;;;48.42;19.77;;;0.30;98.90;;;;;;5140858;27;20055;-72
2022/12/13 00:03:44;;;;;;;49.30;19.85;;;0.30;98.80;;;;;;5140923;27;20054;-72
2022/12/13 00:06:10;;;;;;;52.25;19.27;;;0.20;98.70;;;;;;5140953;27;20175;-73
2022/12/13 00:08:36;;;;;;;48.95;19.38;;;0.20;98.70;;;;;;5141139;27;20160;-72
2022/12/13 00:11:05;;;;;;;48.85;18.98;;;0.20;98.70;;;;;;5140834;27;20438;-72
2022/12/13 00:13:32;;;;;;;46.40;19.60;;;0.10;98.50;;;;;;5122644;27;20042;-72
2022/12/13 00:15:59;;;;;;;49.45;19.63;;;0.00;98.60;;;;;;5140931;27;20041;-72
2022/12/13 00:18:25;;;;;;;46.90;19.40;;;0.00;98.60;;;;;;5105928;27;20047;-72
2022/12/13 00:20:51;;;;;;;53.60;20.83;;;0.00;98.70;;;;;;5140660;27;20122;-75
2022/12/13 00:23:17;;;;;;;54.10;19.27;;;0.10;98.70;;;;;;5140954;27;20039;-72
2022/12/13 00:25:43;;;;;;;48.03;19.15;;;0.10;98.70;;;;;;5140656;27;20392;-72
2022/12/13 00:28:08;;;;;;;47.88;18.90;;;0.00;98.50;;;;;;5140848;27;20118;-72
2022/12/13 00:30:34;;;;;;;47.90;18.95;;;0.00;98.50;;;;;;5140615;27;20041;-72
2022/12/13 00:33:00;;;;;;;51.92;19.50;;;0.00;98.70;;;;;;5122259;27;20039;-72
2022/12/13 00:35:26;;;;;;;49.35;19.17;;;0.00;98.70;;;;;;5122437;27;20107;-72
2022/12/13 00:37:51;;;;;;;50.45;19.63;;;-0.10;98.60;;;;;;5140528;27;20045;-72
2022/12/13 00:40:17;;;;;;;53.30;20.23;;;-0.10;98.50;;;;;;5140203;27;20415;-72
2022/12/13 00:42:43;;;;;;;50.72;18.90;;;0.00;98.70;;;;;;5140224;27;20035;-72
2022/12/13 00:45:09;;;;;;;46.08;18.65;;;0.00;98.70;;;;;;5140414;27;20038;-72
2022/12/13 00:47:35;;;;;;;45.80;19.42;;;0.00;98.50;;;;;;5140172;27;20031;-72
2022/12/13 00:50:03;;;;;;;44.72;18.30;;;-0.10;98.40;;;;;;5140299;27;20051;-76
2022/12/13 00:52:28;;;;;;;43.70;17.98;;;-0.10;98.50;;;;;;5122303;27;20042;-72
2022/12/13 00:54:54;;;;;;;44.90;19.15;;;-0.20;98.30;;;;;;5139990;27;20339;-72
2022/12/13 00:57:20;;;;;;;51.35;18.77;;;-0.20;98.30;;;;;;5121543;27;20165;-72
2022/12/13 00:59:46;;;;;;;41.83;17.95;;;-0.30;98.40;;;;;;5121810;27;20121;-72
2022/12/13 01:02:12;;;;;;;54.00;19.50;;;-0.40;98.40;;;;;;5139777;27;20043;-72
2022/12/13 01:04:38;;;;;;;46.45;17.23;;;-0.40;98.60;;;;;;5139811;27;20039;-72
2022/12/13 01:07:03;;;;;;;47.60;18.00;;;-0.30;98.80;;;;;;5139896;27;20035;-72
2022/12/13 01:09:31;;;;;;;44.10;17.63;;;-0.30;98.70;;;;;;5121177;27;20096;-72
2022/12/13 01:12:05;;;;;;;44.60;18.35;;;-0.20;98.60;;;;;;5140014;27;20043;-72
2022/12/13 01:14:33;;;;;;;46.92;18.48;;;-0.20;98.50;;;;;;5121666;27;20047;-72
2022/12/13 01:16:58;;;;;;;43.38;17.73;;;-0.30;98.40;;;;;;5139501;27;20451;-72
2022/12/13 01:19:27;;;;;;;46.35;18.35;;;-0.40;98.40;;;;;;5121723;27;20039;-72
2022/12/13 01:21:58;;;;;;;47.97;18.23;;;-0.50;98.30;;;;;;5139530;27;20477;-72
2022/12/13 01:24:24;;;;;;;51.83;17.85;;;-0.60;98.30;;;;;;5139726;27;20038;-72
2022/12/13 01:26:52;;;;;;;41.08;17.10;;;-0.60;98.50;;;;;;5121242;27;20115;-72
2022/12/13 01:29:19;;;;;;;44.42;18.23;;;-0.60;98.50;;;;;;5139410;27;20687;-72
2022/12/13 01:31:46;;;;;;;42.78;17.08;;;-0.60;98.60;;;;;;5139593;27;20107;-72
2022/12/13 01:34:14;;;;;;;44.78;18.42;;;-0.50;98.70;;;;;;5139233;27;20468;-72
2022/12/13 01:36:42;;;;;;;46.05;18.25;;;-0.50;98.60;;;;;;5139374;27;20412;-72
2022/12/13 01:39:10;;;;;;;42.97;16.45;;;-0.50;98.60;;;;;;5139354;27;20047;-72
2022/12/13 01:41:36;;;;;;;45.40;18.42;;;-0.40;98.70;;;;;;5139461;27;20066;-72
2022/12/13 01:44:24;;;;;;;46.17;17.52;;;-0.30;98.90;;;;;;5139071;27;20423;-72
2022/12/13 01:46:50;;;;;;;47.40;18.17;;;-0.40;98.30;;;;;;5139090;27;20047;-72
2022/12/13 01:49:17;;;;;;;44.53;18.02;;;-0.50;98.20;;;;;;5139037;27;20332;-72
2022/12/13 01:51:58;;;;;;;43.10;16.98;;;-0.50;98.40;;;;;;5120748;27;20518;-71
2022/12/13 01:54:32;;;;;;;42.70;18.05;;;-0.70;98.20;;;;;;5139248;27;20044;-72
2022/12/13 01:56:58;;;;;;;39.05;16.95;;;-0.90;98.10;;;;;;5138795;27;20042;-72
2022/12/13 01:59:26;;;;;;;42.55;17.38;;;-1.00;98.20;;;;;;5138998;27;20043;-72
2022/12/13 02:01:51;;;;;;;42.05;17.30;;;-1.00;98.40;;;;;;5138664;27;20051;-72
2022/12/13 02:04:28;;;;;;;43.58;17.15;;;-1.10;98.50;;;;;;5138925;27;20050;-72
2022/12/13 02:06:55;;;;;;;39.67;16.02;;;-1.10;98.50;;;;;;5138679;27;20499;-72
2022/12/13 02:09:22;;;;;;;43.35;16.88;;;-1.10;98.50;;;;;;5102548;27;20039;-72
2022/12/13 02:11:49;;;;;;;48.20;16.63;;;-1.00;98.70;;;;;;5138509;27;20043;-72
2022/12/13 02:14:15;;;;;;;42.75;16.88;;;-0.90;98.70;;;;;;5120293;27;20436;-72
2022/12/13 02:17:14;;;;;;;43.85;17.20;;;-0.80;98.80;;;;;;5103750;27;20039;-72
2022/12/13 02:19:58;;;;;;;45.00;16.67;;;-0.80;98.50;;;;;;5120212;27;20035;-72
2022/12/13 02:22:51;;;;;;;43.55;17.08;;;-0.90;98.30;;;;;;5138662;27;20039;-72
2022/12/13 02:25:35;;;;;;;39.28;15.77;;;-0.90;98.30;;;;;;5138606;27;20328;-72
2022/12/13 02:28:26;;;;;;;44.63;16.55;;;-1.00;98.20;;;;;;5138104;27;20047;-74
2022/12/13 02:31:10;;;;;;;39.67;15.57;;;-1.00;98.40;;;;;;5138386;27;20047;-72
2022/12/13 02:33:36;;;;;;;39.15;17.15;;;-1.00;98.30;;;;;;5138658;27;20305;-72
2022/12/13 02:36:08;;;;;;;40.67;15.95;;;-1.00;98.40;;;;;;5138059;27;20051;-72
2022/12/13 02:38:48;;;;;;;39.45;16.85;;;-1.00;98.30;;;;;;5120200;27;20071;-72
2022/12/13 02:41:40;;;;;;;43.35;17.73;;;-1.00;98.20;;;;;;5137995;27;20315;-72
2022/12/13 02:44:31;;;;;;;39.53;16.05;;;-1.00;98.30;;;;;;5138182;27;20031;-72
2022/12/13 02:47:03;;;;;;;46.10;17.73;;;-1.00;98.20;;;;;;5126748;27;20125;-72
2022/12/13 02:49:33;;;;;;;43.25;16.55;;;-0.90;98.30;;;;;;5119546;27;20436;-72
2022/12/13 02:52:00;;;;;;;44.30;16.63;;;-0.90;98.30;;;;;;5119934;27;20035;-72
2022/12/13 02:54:25;;;;;;;39.13;16.75;;;-0.80;98.30;;;;;;5138085;27;20035;-72
2022/12/13 02:56:56;;;;;;;44.22;17.02;;;-0.70;98.50;;;;;;5137892;27;20339;-72
2022/12/13 02:59:28;;;;;;;42.00;17.67;;;-0.70;98.20;;;;;;5137733;27;20031;-73
2022/12/13 03:02:23;;;;;;;40.92;16.85;;;-0.70;98.20;;;;;;5137662;27;20055;-73
2022/12/13 03:08:18;;;;;;;41.45;17.60;;;-0.50;98.50;;;;;;5082013;27;20044;-73
2022/12/13 03:10:59;;;;;;;40.00;16.42;;;-0.50;98.30;;;;;;5137040;27;20435;-72
2022/12/13 03:13:36;;;;;;;41.28;15.75;;;-0.60;98.10;;;;;;5137541;27;20118;-72
2022/12/13 03:16:15;;;;;;;46.30;17.30;;;-0.70;98.10;;;;;;5137500;27;20114;-72
2022/12/13 03:18:42;;;;;;;37.28;15.98;;;-0.70;98.00;;;;;;5137447;27;20042;-72
2022/12/13 03:21:10;;;;;;;48.72;16.90;;;-0.70;98.20;;;;;;5136989;27;20069;-72
2022/12/13 03:23:36;;;;;;;43.97;17.30;;;-0.70;98.20;;;;;;5137351;28;20035;-72
2022/12/13 03:26:14;;;;;;;38.22;15.85;;;-0.90;97.90;;;;;;5137590;27;20027;-72
2022/12/13 03:28:40;;;;;;;39.15;15.63;;;-0.90;98.10;;;;;;5137442;27;20043;-72
2022/12/13 03:31:06;;;;;;;39.90;17.23;;;-1.00;98.10;;;;;;5137568;28;20457;-72
2022/12/13 03:33:33;;;;;;;42.45;16.13;;;-1.00;98.10;;;;;;5136718;28;20327;-72
2022/12/13 03:35:59;;;;;;;42.40;16.40;;;-1.00;98.20;;;;;;5137403;28;20035;-72
2022/12/13 03:38:25;;;;;;;38.47;16.48;;;-1.00;98.10;;;;;;5137451;28;20166;-72
2022/12/13 03:40:56;;;;;;;36.75;16.13;;;-1.10;98.10;;;;;;5136924;27;20074;-72
2022/12/13 03:43:22;;;;;;;41.72;17.55;;;-1.10;98.10;;;;;;5136554;28;20384;-72
2022/12/13 03:45:48;;;;;;;42.20;15.57;;;-1.00;98.30;;;;;;5137125;28;20043;-72
2022/12/13 03:48:14;;;;;;;39.95;15.68;;;-1.00;98.30;;;;;;5137372;28;20039;-72
2022/12/13 03:50:40;;;;;;;42.28;17.63;;;-0.90;98.20;;;;;;5137288;27;20449;-72
2022/12/13 03:53:05;;;;;;;40.08;15.75;;;-0.90;98.10;;;;;;5137493;28;20043;-72
2022/12/13 03:55:31;;;;;;;37.92;14.95;;;-0.90;98.10;;;;;;5137337;27;20035;-71
2022/12/13 03:57:56;;;;;;;40.40;15.73;;;-1.00;98.10;;;;;;5136091;28;20095;-71
2022/12/13 04:00:22;;;;;;;38.33;15.55;;;-1.00;98.10;;;;;;5136708;28;20150;-71
2022/12/13 04:02:48;;;;;;;39.75;15.90;;;-1.00;98.20;;;;;;5137345;28;20054;-72
2022/12/13 04:05:14;;;;;;;43.22;16.27;;;-1.00;98.20;;;;;;5137054;28;20045;-72
2022/12/13 04:07:39;;;;;;;33.15;15.02;;;-1.00;98.10;;;;;;5137236;27;20039;-72
2022/12/13 04:10:05;;;;;;;40.55;15.98;;;-1.00;98.20;;;;;;5136994;28;20122;-72
2022/12/13 04:15:15;;;;;;;42.92;16.95;;;-1.00;98.20;;;;;;5136196;28;20081;-72
2022/12/13 04:17:41;;;;;;;41.40;16.75;;;-1.00;98.20;;;;;;5137059;28;20074;-72
2022/12/13 04:20:07;;;;;;;41.15;16.10;;;-0.90;98.30;;;;;;5135851;28;20049;-72
2022/12/13 04:22:33;;;;;;;38.45;16.25;;;-0.90;98.30;;;;;;5136879;28;20088;-73
2022/12/13 04:24:58;;;;;;;35.35;16.00;;;-0.90;98.30;;;;;;5137070;28;20031;-73
2022/12/13 04:27:24;;;;;;;40.78;16.33;;;-0.80;98.50;;;;;;5135905;28;20305;-72
2022/12/13 04:29:50;;;;;;;42.70;16.52;;;-0.70;98.40;;;;;;5136058;28;20118;-72
2022/12/13 04:32:15;;;;;;;38.88;15.27;;;-0.70;98.30;;;;;;5131969;27;20468;-72
2022/12/13 04:34:41;;;;;;;37.42;16.10;;;-0.70;98.30;;;;;;5139883;27;20554;-72
2022/12/13 04:37:12;;;;;;;38.05;16.23;;;-0.70;98.10;;;;;;5140717;27;20061;-72
2022/12/13 04:39:37;;;;;;;36.55;15.77;;;-0.70;98.10;;;;;;5122062;27;20118;-72
2022/12/13 04:42:03;;;;;;;45.65;16.20;;;-0.70;98.10;;;;;;5122167;27;20122;-72
2022/12/13 04:44:29;;;;;;;43.20;18.15;;;-0.70;98.20;;;;;;5105202;27;20500;-72
2022/12/13 04:46:55;;;;;;;43.53;16.63;;;-0.60;98.30;;;;;;5140549;27;20035;-72
2022/12/13 04:49:21;;;;;;;43.65;15.40;;;-0.60;98.20;;;;;;5140372;27;20039;-72
2022/12/13 04:51:47;;;;;;;40.08;14.73;;;-0.70;98.00;;;;;;5121963;27;20050;-72
2022/12/13 04:54:12;;;;;;;35.67;14.98;;;-0.80;97.90;;;;;;5121868;27;20043;-72
2022/12/13 04:56:38;;;;;;;40.58;16.73;;;-0.90;97.90;;;;;;5140224;27;20098;-72
2022/12/13 04:59:04;;;;;;;39.33;15.02;;;-1.00;98.00;;;;;;5122080;27;20039;-72
2022/12/13 05:01:29;;;;;;;37.88;14.57;;;-1.20;97.80;;;;;;5139849;27;20466;-72
2022/12/13 05:03:55;;;;;;;35.33;15.30;;;-1.30;98.00;;;;;;5139967;27;20096;-72
2022/12/13 05:06:21;;;;;;;36.80;14.50;;;-1.20;98.30;;;;;;5139895;27;20043;-72
2022/12/13 05:08:46;;;;;;;35.58;14.85;;;-1.20;98.30;;;;;;5121410;27;20047;-73
2022/12/13 05:11:12;;;;;;;42.60;15.90;;;-1.30;98.20;;;;;;5139700;27;20039;-72
2022/12/13 05:13:38;;;;;;;32.25;14.75;;;-1.30;98.10;;;;;;5139628;27;20043;-72
2022/12/13 05:16:06;;;;;;;38.85;16.08;;;-1.30;98.30;;;;;;5121915;27;20335;-72
2022/12/13 05:18:34;;;;;;;36.83;15.25;;;-1.10;98.50;;;;;;5121568;27;20297;-72
2022/12/13 05:21:05;;;;;;;40.78;15.20;;;-1.20;98.20;;;;;;5121497;27;20039;-72
2022/12/13 05:23:30;;;;;;;36.55;14.88;;;-1.20;98.10;;;;;;5121294;27;20031;-71
2022/12/13 05:25:56;;;;;;;33.03;14.25;;;-1.30;98.10;;;;;;5139491;27;20094;-72
2022/12/13 05:28:25;;;;;;;32.92;14.93;;;-1.30;98.10;;;;;;5139646;27;20069;-72
2022/12/13 05:30:50;;;;;;;34.92;14.73;;;-1.40;98.30;;;;;;5139356;27;20046;-71
2022/12/13 05:33:16;;;;;;;37.50;14.48;;;-1.40;98.30;;;;;;5139318;27;20043;-72
2022/12/13 05:35:42;;;;;;;36.30;14.35;;;-1.40;98.30;;;;;;5139494;27;20039;-72
2022/12/13 05:38:08;;;;;;;34.30;14.85;;;-1.40;98.30;;;;;;5121036;27;20137;-72
2022/12/13 05:40:34;;;;;;;37.08;16.00;;;-1.30;98.50;;;;;;5138766;27;20070;-72
2022/12/13 05:43:00;;;;;;;36.60;14.40;;;-1.20;98.50;;;;;;5121346;27;20031;-72
2022/12/13 05:45:26;;;;;;;33.67;15.07;;;-1.20;98.40;;;;;;5120858;27;20039;-71
2022/12/13 05:47:52;;;;;;;35.75;15.02;;;-1.10;98.60;;;;;;5139333;27;20031;-77
2022/12/13 05:50:18;;;;;;;40.72;14.80;;;-1.10;98.30;;;;;;5120820;27;20194;-71
2022/12/13 05:52:44;;;;;;;31.52;14.60;;;-1.10;98.40;;;;;;5138869;27;20114;-72
2022/12/13 05:55:10;;;;;;;39.50;15.15;;;-1.10;98.40;;;;;;5120698;27;20046;-72
2022/12/13 05:57:37;;;;;;;32.95;15.23;;;-1.10;98.50;;;;;;5138796;27;20035;-72
2022/12/13 06:00:07;;;;;;;37.58;15.07;;;-1.10;98.30;;;;;;5139033;27;20035;-72
2022/12/13 06:02:41;;;;;;;35.20;14.68;;;-1.00;98.40;;;;;;5120296;27;20412;-72
2022/12/13 06:05:08;;;;;;;36.50;15.43;;;-1.00;98.30;;;;;;5138881;27;20035;-73
2022/12/13 06:07:34;;;;;;;33.58;15.02;;;-1.10;98.10;;;;;;5138810;27;20400;-73
2022/12/13 06:10:01;;;;;;;33.85;14.43;;;-1.10;98.10;;;;;;5120060;27;20461;-72
2022/12/13 06:12:26;;;;;;;35.28;14.23;;;-1.10;98.00;;;;;;5138889;27;20043;-72
2022/12/13 06:14:52;;;;;;;32.20;15.02;;;-1.10;98.10;;;;;;5138482;27;20039;-72
2022/12/13 06:17:18;;;;;;;32.00;14.15;;;-1.20;98.10;;;;;;5138633;27;20443;-72
2022/12/13 06:19:45;;;;;;;32.75;14.52;;;-1.30;98.10;;;;;;5138213;27;20415;-72
2022/12/13 06:22:11;;;;;;;32.60;14.77;;;-1.40;98.00;;;;;;5138683;27;20411;-72
2022/12/13 06:24:37;;;;;;;34.55;13.95;;;-1.40;98.00;;;;;;5120331;27;20038;-72
2022/12/13 06:27:04;;;;;;;41.90;15.73;;;-1.50;98.10;;;;;;5138487;27;20412;-73
2022/12/13 06:29:29;;;;;;;34.10;13.90;;;-1.60;98.00;;;;;;5138191;27;20057;-72
2022/12/13 06:32:01;;;;;;;31.77;14.07;;;-1.60;98.30;;;;;;5120149;27;20122;-72
2022/12/13 06:34:27;;;;;;;40.92;16.00;;;-1.60;98.30;;;;;;5119952;27;20419;-72
2022/12/13 06:36:53;;;;;;;34.40;14.55;;;-1.50;98.30;;;;;;5138160;27;20049;-72
2022/12/13 06:39:19;;;;;;;42.50;16.23;;;-1.40;98.40;;;;;;5137993;27;20039;-72
2022/12/13 06:41:44;;;;;;;37.90;14.68;;;-1.40;98.30;;;;;;5119849;27;20095;-72
2022/12/13 06:44:11;;;;;;;32.70;14.20;;;-1.40;98.20;;;;;;5102859;27;20039;-71
2022/12/13 06:46:36;;;;;;;35.33;14.32;;;-1.30;98.20;;;;;;5137986;27;20035;-72
2022/12/13 06:49:03;;;;;;;39.35;15.90;;;-1.20;98.20;;;;;;5138012;27;20326;-72
2022/12/13 06:51:28;;;;;;;37.17;15.18;;;-1.10;98.30;;;;;;5138169;27;20039;-72
2022/12/13 06:53:55;;;;;;;36.38;15.43;;;-1.10;98.20;;;;;;5137890;27;20305;-72
2022/12/13 06:56:21;;;;;;;35.75;15.77;;;-1.10;98.20;;;;;;5102166;27;20123;-72
2022/12/13 06:58:47;;;;;;;38.63;15.27;;;-1.00;98.30;;;;;;5137996;27;20061;-72
2022/12/13 07:01:15;;;;;;;36.20;15.45;;;-0.90;98.30;;;;;;5119339;27;20046;-72
2022/12/13 07:03:41;;;;;;;39.13;14.90;;;-1.00;98.20;;;;;;5137527;27;20510;-72
2022/12/13 07:06:13;;;;;;;40.28;16.33;;;-1.00;98.10;;;;;;5137928;27;20121;-72
2022/12/13 07:08:40;;;;;;;41.17;15.43;;;-1.00;98.30;;;;;;5119796;27;20053;-72
2022/12/13 07:11:06;;;;;;;36.90;15.27;;;-1.00;98.30;;;;;;5137465;27;20081;-72
2022/12/13 07:13:33;;;;;;;40.75;16.27;;;-1.00;98.30;;;;;;5137752;27;20064;-72
2022/12/13 07:15:59;;;;;;;35.47;15.73;;;-0.90;98.30;;;;;;5137551;27;20053;-72
2022/12/13 07:18:25;;;;;;;38.40;15.80;;;-1.00;98.20;;;;;;5137788;27;20054;-72
2022/12/13 07:20:50;;;;;;;37.28;14.63;;;-1.00;98.20;;;;;;5137297;27;20039;-72
2022/12/13 07:23:16;;;;;;;34.05;14.95;;;-1.00;98.20;;;;;;5137756;27;20039;-72
2022/12/13 07:25:49;;;;;;;34.35;15.65;;;-1.00;98.10;;;;;;5119447;28;20062;-72
2022/12/13 07:28:15;;;;;;;39.47;15.68;;;-1.00;98.10;;;;;;5137581;28;20040;-72
2022/12/13 07:30:40;;;;;;;34.35;14.50;;;-1.00;98.10;;;;;;5119190;28;20046;-72
2022/12/13 07:33:06;;;;;;;37.00;15.65;;;-1.00;98.10;;;;;;5137580;28;20442;-72
2022/12/13 07:35:32;;;;;;;35.13;15.02;;;-0.90;98.20;;;;;;5119144;28;20079;-72
2022/12/13 07:37:58;;;;;;;35.65;15.32;;;-0.90;98.30;;;;;;5137387;28;20124;-72
2022/12/13 07:40:24;;;;;;;35.45;15.27;;;-0.80;98.20;;;;;;5136857;28;20118;-72
2022/12/13 07:42:54;;;;;;;34.85;15.18;;;-0.80;98.10;;;;;;5137151;28;20047;-72
2022/12/13 07:45:21;;;;;;;37.20;15.10;;;-0.90;98.10;;;;;;5137321;28;20070;-72
2022/12/13 07:47:47;;;;;;;37.90;15.20;;;-0.80;98.10;;;;;;5137382;28;20056;-72
2022/12/13 07:50:14;;;;;;;38.00;15.57;;;-0.80;98.20;;;;;;5137125;28;20055;-72
2022/12/13 07:52:39;;;;;;;35.38;15.77;;;-0.80;98.20;;;;;;5137317;28;20042;-72
2022/12/13 07:55:06;;;;;;;35.83;15.75;;;-0.80;98.20;;;;;;5137750;28;20319;-72
2022/12/13 07:57:32;;;;;;;35.97;15.73;;;-0.80;98.20;;;;;;5137302;28;20039;-72
2022/12/13 07:59:58;;;;;;;42.63;17.10;;;-0.80;98.20;;;;;;5136969;28;20035;-72
2022/12/13 08:02:23;;;;;;;38.83;15.65;;;-0.80;98.20;;;;;;5118757;28;20051;-72
2022/12/13 08:04:50;;;;;;;41.45;16.83;;;-0.80;98.40;;;;;;5119064;28;20100;-72
2022/12/13 08:07:15;;;;;;;42.25;16.67;;;-0.80;98.30;;;;;;5120292;27;20050;-72
2022/12/13 08:09:41;;;;;;;41.97;16.02;;;-0.80;98.40;;;;;;5122794;27;20043;-72
2022/12/13 08:12:07;;;;;;;41.08;17.77;;;-0.80;98.50;;;;;;5140906;27;20043;-72
2022/12/13 08:14:33;;;;;;;40.83;16.55;;;-0.70;98.50;;;;;;5122750;27;20035;-73
2022/12/13 08:16:59;;;;;;;44.30;17.67;;;-0.70;98.40;;;;;;5123076;27;20043;-72
2022/12/13 08:19:25;;;;;;;40.55;17.10;;;-0.70;98.50;;;;;;5140815;27;20051;-72
2022/12/13 08:21:51;;;;;;;38.90;17.00;;;-0.60;98.50;;;;;;5122941;27;20031;-72
2022/12/13 08:24:17;;;;;;;39.15;16.60;;;-0.50;98.50;;;;;;5122853;27;20382;-71
2022/12/13 08:26:43;;;;;;;38.85;18.25;;;-0.50;98.50;;;;;;5140792;27;20087;-72
2022/12/13 08:29:10;;;;;;;44.88;17.92;;;-0.50;98.50;;;;;;5122411;27;20043;-72
2022/12/13 08:31:36;;;;;;;35.70;16.58;;;-0.50;98.50;;;;;;5140684;27;20042;-72
2022/12/13 08:34:01;;;;;;;43.97;18.10;;;-0.40;98.60;;;;;;5140791;27;20035;-72
2022/12/13 08:36:27;;;;;;;44.88;18.25;;;-0.40;98.50;;;;;;5122192;27;20163;-72
2022/12/13 08:38:56;;;;;;;39.72;16.80;;;-0.40;98.60;;;;;;5140541;27;20039;-72
2022/12/13 08:41:22;;;;;;;40.85;17.48;;;-0.30;98.70;;;;;;5121755;27;20035;-71
2022/12/13 08:43:48;;;;;;;41.72;18.80;;;-0.30;98.70;;;;;;5140126;27;20035;-72
2022/12/13 08:46:14;;;;;;;41.35;17.83;;;-0.30;98.70;;;;;;5140375;27;20416;-72
2022/12/13 08:48:40;;;;;;;44.35;17.60;;;-0.20;98.70;;;;;;5140258;27;20091;-72
2022/12/13 08:51:08;;;;;;;37.08;16.98;;;-0.20;98.70;;;;;;5140336;27;20039;-72
2022/12/13 08:53:34;;;;;;;43.55;18.67;;;-0.20;98.80;;;;;;5104916;27;20069;-72
2022/12/13 08:56:02;;;;;;;47.03;18.08;;;-0.40;98.80;;;;;;5140302;27;20343;-73
2022/12/13 08:58:28;;;;;;;41.78;17.73;;;-0.30;99.10;;;;;;5140205;27;20082;-72
2022/12/13 09:00:54;;;;;;;40.65;18.73;;;-0.20;99.10;;;;;;5140187;27;20380;-71
2022/12/13 09:03:19;;;;;;;50.45;20.92;;;-0.20;99.10;;;;;;5139798;27;20062;-72
2022/12/13 09:05:45;;;;;;;48.08;20.88;;;-0.10;99.20;;;;;;5121723;27;20039;-71
2022/12/13 09:08:11;;;;;;;43.38;19.13;;;-0.10;99.20;;;;;;5121873;27;20031;-72
2022/12/13 09:10:37;;;;;;;47.75;19.15;;;0.00;99.20;;;;;;5121385;27;20494;-72
2022/12/13 09:13:03;;;;;;;44.83;20.23;;;0.00;99.20;;;;;;5140104;27;20031;-73
2022/12/13 09:15:30;;;;;;;51.40;20.60;;;0.10;99.20;;;;;;5121765;27;20121;-66
2022/12/13 09:17:56;;;;;;;45.78;20.50;;;0.10;99.20;;;;;;5139523;27;20064;-66
2022/12/13 09:20:22;;;;;;;45.50;19.55;;;0.10;99.30;;;;;;5139548;27;20062;-67
2022/12/13 09:22:47;;;;;;;43.63;19.42;;;0.20;99.30;;;;;;5139871;27;20035;-66
2022/12/13 09:25:13;;;;;;;49.60;20.80;;;0.20;99.30;;;;;;5121267;27;20308;-66
2022/12/13 09:27:39;;;;;;;45.00;19.40;;;0.20;99.20;;;;;;5139425;27;20392;-67
2022/12/13 09:30:06;;;;;;;47.88;20.73;;;0.30;99.30;;;;;;5121526;27;20078;-66
2022/12/13 09:32:32;;;;;;;50.00;21.70;;;0.30;99.30;;;;;;5139502;27;20360;-67
2022/12/13 09:34:58;;;;;;;51.78;20.30;;;0.40;99.30;;;;;;5139248;27;20180;-66
2022/12/13 09:37:24;;;;;;;47.60;20.15;;;0.40;99.20;;;;;;5139334;27;20122;-67
2022/12/13 09:39:49;;;;;;;47.15;20.52;;;0.40;99.20;;;;;;5139081;27;20416;-67
2022/12/13 09:42:24;;;;;;;48.92;20.35;;;0.40;99.40;;;;;;5138632;27;20341;-66
2022/12/13 09:44:54;;;;;;;46.05;20.35;;;0.30;99.50;;;;;;5139225;27;20038;-66
2022/12/13 09:47:34;;;;;;;45.97;19.60;;;0.40;99.50;;;;;;5139217;27;20038;-67
2022/12/13 09:50:03;;;;;;;47.35;20.45;;;0.50;99.50;;;;;;5139074;27;20126;-66
2022/12/13 09:52:37;;;;;;;51.63;20.75;;;0.50;99.50;;;;;;5120926;27;20038;-67
2022/12/13 09:55:17;;;;;;;45.35;20.40;;;0.60;99.60;;;;;;5139084;27;20031;-66
2022/12/13 09:57:43;;;;;;;45.30;19.48;;;0.70;99.70;;;;;;5139091;27;20039;-67
2022/12/13 10:00:14;;;;;;;46.13;20.35;;;0.80;99.60;;;;;;5120712;27;20069;-66
2022/12/13 10:02:52;;;;;;;51.67;19.83;;;0.90;99.60;;;;;;5120436;27;20519;-66
2022/12/13 10:05:27;;;;;;;51.28;21.08;;;1.00;99.50;;;;;;5139061;27;20031;-66
2022/12/13 10:07:56;;;;;;;50.85;21.65;;;1.10;99.40;;;;;;5120657;27;20042;-66
2022/12/13 10:10:22;;;;;;;46.75;21.15;;;1.10;99.30;;;;;;5138500;27;20062;-66
2022/12/13 10:12:56;;;;;;;51.42;21.45;;;1.10;99.40;;;;;;5138382;27;20043;-66
2022/12/13 10:15:24;;;;;;;48.33;21.75;;;1.10;99.30;;;;;;5120376;27;20054;-67
2022/12/13 10:17:50;;;;;;;44.13;19.77;;;1.20;99.50;;;;;;5138662;27;20049;-67
2022/12/13 10:20:18;;;;;;;56.65;24.33;;;1.30;99.60;;;;;;5094122;28;20319;-68
2022/12/13 10:22:44;;;;;;;40.10;18.65;;;1.40;99.50;;;;;;5131406;27;20031;-67
2022/12/13 10:25:10;;;;;;;46.45;19.73;;;1.50;99.50;;;;;;5137232;27;20046;-69
2022/12/13 10:27:44;;;;;;;49.60;21.17;;;1.50;99.40;;;;;;5099630;28;20035;-68
2022/12/13 10:30:14;;;;;;;50.47;21.25;;;1.50;99.20;;;;;;5117150;28;20035;-69
2022/12/13 10:32:53;;;;;;;44.63;20.60;;;1.60;99.30;;;;;;5117416;28;20036;-69
2022/12/13 10:35:24;;;;;;;50.60;21.73;;;1.40;99.40;;;;;;5117800;28;20042;-69
2022/12/13 10:37:50;;;;;;;51.80;21.70;;;1.50;99.40;;;;;;5101640;27;20069;-69
2022/12/13 10:40:47;;;;;;;46.28;21.08;;;1.40;99.40;;;;;;5137307;27;20043;-69
2022/12/13 10:43:19;;;;;;;46.00;20.35;;;1.50;99.50;;;;;;5087451;27;20035;-69
2022/12/13 10:46:17;;;;;;;46.65;21.67;;;1.50;99.50;;;;;;5138196;27;20059;-69
2022/12/13 10:48:49;;;;;;;46.25;20.02;;;1.50;99.50;;;;;;5137822;27;20316;-69
2022/12/13 10:51:20;;;;;;;46.80;20.45;;;1.60;99.70;;;;;;5137770;27;20431;-69
2022/12/13 10:53:56;;;;;;;46.03;20.13;;;1.80;99.70;;;;;;5138234;27;20309;-68
2022/12/13 10:56:31;;;;;;;45.87;20.87;;;2.00;99.70;;;;;;5138030;27;20081;-68
2022/12/13 10:59:11;;;;;;;43.22;20.02;;;2.20;99.70;;;;;;5137900;27;20441;-69
2022/12/13 11:01:37;;;;;;;45.40;20.48;;;2.50;99.50;;;;;;5137708;27;20039;-69
2022/12/13 11:04:30;;;;;;;45.35;21.70;;;2.70;99.30;;;;;;5119859;27;20118;-69
2022/12/13 11:06:58;;;;;;;43.00;20.15;;;2.90;99.00;;;;;;5119648;28;20031;-69
2022/12/13 11:09:26;;;;;;;46.50;20.20;;;2.90;98.90;;;;;;5137775;27;20115;-69
2022/12/13 11:11:55;;;;;;;44.45;20.17;;;2.80;99.00;;;;;;5126289;27;20032;-68
2022/12/13 11:14:25;;;;;;;42.55;20.65;;;2.90;99.10;;;;;;5134328;27;20114;-69
2022/12/13 11:17:04;;;;;;;40.53;19.65;;;3.00;99.00;;;;;;5131761;27;20086;-69
2022/12/13 11:19:44;;;;;;;38.20;19.23;;;3.10;99.10;;;;;;5117318;28;20071;-69
2022/12/13 11:22:23;;;;;;;43.10;20.92;;;3.30;99.00;;;;;;5116413;28;20097;-69
2022/12/13 11:24:59;;;;;;;44.83;20.90;;;3.60;98.90;;;;;;5116805;28;20035;-69
2022/12/13 11:27:25;;;;;;;;;;;3.80;98.80;;;;;;5099297;28;20039;-69
2022/12/13 11:30:15;;;;;;;45.80;19.97;;;4.00;98.80;;;;;;5098569;28;19915;-69
2022/12/13 11:32:56;;;;;;;40.55;19.55;;;4.10;98.50;;;;;;5116608;28;20084;-68
2022/12/13 11:35:46;;;;;;;48.17;22.10;;;4.30;98.60;;;;;;5134874;28;20066;-71
2022/12/13 11:38:49;;;;;;;36.47;17.88;;;4.80;98.20;;;;;;5136994;28;20101;-68
2022/12/13 11:41:39;;;;;;;41.38;18.52;;;5.10;98.00;;;;;;5119703;27;20035;-69
2022/12/13 11:44:28;;;;;;;42.78;19.90;;;5.20;97.80;;;;;;5140610;27;20039;-69
2022/12/13 11:46:57;;;;;;;39.17;17.77;;;5.10;97.50;;;;;;5141457;27;20391;-69
2022/12/13 11:49:44;;;;;;;41.15;19.60;;;4.80;97.40;;;;;;5137909;27;20054;-70
2022/12/13 11:52:16;;;;;;;36.53;18.13;;;4.60;97.60;;;;;;5119354;27;20035;-68
2022/12/13 11:54:58;;;;;;;40.65;19.70;;;4.30;97.60;;;;;;5136949;27;20057;-70
2022/12/13 11:57:51;;;;;;;36.60;17.77;;;4.20;97.90;;;;;;5119231;28;20050;-68
2022/12/13 12:01:06;;;;;;;40.65;17.73;;;4.10;98.10;;;;;;5102471;28;20047;-68
2022/12/13 12:03:36;;;;;;;36.60;16.45;;;4.40;98.30;;;;;;5110045;28;20067;-69
2022/12/13 12:06:16;;;;;;;33.38;16.80;;;4.90;97.70;;;;;;5120474;28;20097;-69
2022/12/13 12:09:06;;;;;;;33.90;16.85;;;5.50;97.70;;;;;;5102616;28;20343;-69
2022/12/13 12:11:42;;;;;;;36.05;16.75;;;6.20;96.70;;;;;;5120420;28;20043;-68
2022/12/13 12:14:17;;;;;;;35.95;17.33;;;6.70;96.50;;;;;;5120530;28;20394;-67
2022/12/13 12:16:48;;;;;;;32.63;16.85;;;7.00;96.60;;;;;;5123356;27;20108;-68
2022/12/13 12:19:20;;;;;;;34.88;16.77;;;6.80;96.20;;;;;;5140111;27;20105;-68
2022/12/13 12:22:06;;;;;;;37.42;18.05;;;6.30;96.40;;;;;;5138929;27;20076;-74
2022/12/13 12:25:00;;;;;;;33.90;17.05;;;6.00;96.60;;;;;;5113365;28;20320;-67
2022/12/13 12:27:32;;;;;;;36.05;17.35;;;5.40;96.80;;;;;;5101852;28;20047;-71
2022/12/13 12:30:31;;;;;;;34.85;17.25;;;5.20;96.80;;;;;;5139626;27;20121;-67
2022/12/13 12:33:17;;;;;;;29.42;15.32;;;5.50;97.20;;;;;;5122741;27;20419;-69
2022/12/13 12:35:50;;;;;;;31.48;15.77;;;6.20;96.90;;;;;;5101597;27;20039;-75
2022/12/13 12:39:01;;;;;;;26.05;14.35;;;6.60;96.50;;;;;;5139601;27;20043;-72
2022/12/13 12:41:27;;;;;;;30.52;14.73;;;7.10;96.40;;;;;;5100608;27;20074;-68
2022/12/13 12:44:27;;;;;;;24.98;13.75;;;7.90;96.30;;;;;;5140254;27;20440;-69
2022/12/13 12:47:07;;;;;;;23.50;12.30;;;8.80;95.40;;;;;;5140496;27;20080;-68
2022/12/13 12:49:33;;;;;;;24.85;13.50;;;9.50;94.80;;;;;;5140274;27;20043;-68
2022/12/13 12:52:09;;;;;;;25.45;12.63;;;10.10;94.50;;;;;;5139975;27;20108;-68